createdAt,value
2023-10-09T00:00:34.518Z,2.42
2023-10-09T00:03:02.758Z,2.60
2023-10-09T00:05:47.254Z,2.77
2023-10-09T00:08:20.799Z,2.35
2023-10-09T00:10:58.666Z,2.28
2023-10-09T00:13:36.108Z,3.10
2023-10-09T00:16:14.895Z,2.85
2023-10-09T00:18:48.177Z,2.03
2023-10-09T00:21:23.170Z,1.85
2023-10-09T00:23:55.395Z,2.12
2023-10-09T00:26:23.992Z,2.65
2023-10-09T00:28:52.954Z,2.97
2023-10-09T00:31:35.072Z,2.33
2023-10-09T00:34:16.540Z,2.17
2023-10-09T00:36:52.286Z,2.12
2023-10-09T00:39:35.012Z,2.83
2023-10-09T00:42:03.855Z,2.15
2023-10-09T00:44:39.107Z,2.03
2023-10-09T00:47:22.362Z,3.47
2023-10-09T00:50:01.979Z,2.83
2023-10-09T00:52:44.517Z,3.10
2023-10-09T00:55:21.972Z,3.25
2023-10-09T00:58:00.629Z,1.77
2023-10-09T01:00:48.754Z,2.87
2023-10-09T01:03:18.311Z,4.03
2023-10-09T01:05:59.778Z,2.28
2023-10-09T01:08:33.765Z,3.17
2023-10-09T01:11:11.068Z,2.03
2023-10-09T01:13:42.689Z,2.37
2023-10-09T01:16:17.195Z,3.92
2023-10-09T01:18:52.585Z,3.90
2023-10-09T01:21:26.360Z,3.08
2023-10-09T01:24:04.474Z,2.70
2023-10-09T01:26:56.476Z,4.22
2023-10-09T01:29:28.849Z,3.05
2023-10-09T01:31:57.863Z,4.37
2023-10-09T01:34:40.212Z,2.25
2023-10-09T01:37:18.459Z,2.87
2023-10-09T01:40:00.850Z,3.22
2023-10-09T01:42:31.893Z,3.45
2023-10-09T01:45:00.029Z,2.47
2023-10-09T01:47:33.185Z,4.50
2023-10-09T01:50:06.300Z,4.87
2023-10-09T01:52:37.247Z,3.78
2023-10-09T01:55:28.360Z,2.45
2023-10-09T01:57:59.688Z,3.67
2023-10-09T02:00:30.516Z,3.97
2023-10-09T02:03:04.282Z,3.80
2023-10-09T02:05:34.920Z,2.95
2023-10-09T02:08:05.164Z,3.20
2023-10-09T02:10:33.909Z,3.70
2023-10-09T02:13:12.747Z,3.08
2023-10-09T02:15:47.150Z,3.77
2023-10-09T02:18:23.473Z,2.90
2023-10-09T02:21:01.435Z,2.53
2023-10-09T02:23:46.958Z,1.92
2023-10-09T02:26:26.876Z,3.67
2023-10-09T02:29:05.768Z,3.10
2023-10-09T02:31:45.446Z,3.72
2023-10-09T02:34:16.836Z,3.45
2023-10-09T02:36:50.111Z,2.87
2023-10-09T02:39:35.999Z,3.58
2023-10-09T02:42:20.636Z,5.73
2023-10-09T02:44:51.027Z,2.80
2023-10-09T02:47:30.924Z,2.47
2023-10-09T02:50:08.232Z,2.83
2023-10-09T02:52:41.866Z,2.65
2023-10-09T02:55:23.518Z,2.53
2023-10-09T02:58:06.157Z,3.40
2023-10-09T03:00:37.375Z,1.73
2023-10-09T03:03:08.941Z,3.50
2023-10-09T03:05:39.632Z,5.82
2023-10-09T03:08:09.974Z,3.77
2023-10-09T03:10:39.939Z,3.00
2023-10-09T03:13:07.583Z,4.28
2023-10-09T03:15:37.213Z,4.35
2023-10-09T03:18:06.120Z,2.00
2023-10-09T03:20:33.841Z,4.30
2023-10-09T03:23:02.533Z,2.70
2023-10-09T03:25:31.761Z,2.85
2023-10-09T03:28:00.030Z,3.90
2023-10-09T03:30:27.601Z,2.67
2023-10-09T03:32:55.958Z,3.03
2023-10-09T03:35:28.256Z,2.72
2023-10-09T03:37:58.536Z,3.33
2023-10-09T03:40:26.344Z,2.05
2023-10-09T03:42:54.246Z,2.50
2023-10-09T03:45:29.215Z,2.87
2023-10-09T03:48:10.279Z,2.92
2023-10-09T03:50:39.007Z,2.28
2023-10-09T03:53:12.477Z,3.12
2023-10-09T03:55:41.313Z,3.72
2023-10-09T03:58:10.038Z,5.07
2023-10-09T04:00:47.615Z,3.20
2023-10-09T04:03:17.057Z,3.45
2023-10-09T04:05:45.234Z,2.47
2023-10-09T04:08:30.760Z,3.28
2023-10-09T04:11:05.550Z,2.90
2023-10-09T04:13:36.347Z,2.42
2023-10-09T04:16:26.911Z,1.55
2023-10-09T04:18:57.678Z,1.73
2023-10-09T04:21:38.251Z,3.67
2023-10-09T04:24:10.634Z,2.63
2023-10-09T04:26:46.316Z,2.03
2023-10-09T04:29:28.461Z,4.07
2023-10-09T04:31:58.013Z,4.60
2023-10-09T04:34:45.920Z,3.12
2023-10-09T04:37:16.786Z,3.43
2023-10-09T04:40:02.160Z,3.62
2023-10-09T04:42:39.009Z,3.20
2023-10-09T04:45:07.625Z,7.97
2023-10-09T04:47:59.721Z,5.12
2023-10-09T04:50:30.484Z,2.43
2023-10-09T04:53:14.632Z,2.28
2023-10-09T04:55:55.326Z,4.97
2023-10-09T04:58:27.148Z,4.15
2023-10-09T05:01:01.277Z,4.47
2023-10-09T05:03:30.830Z,6.67
2023-10-09T05:06:21.300Z,2.10
2023-10-09T05:08:50.713Z,3.28
2023-10-09T05:11:37.162Z,2.78
2023-10-09T05:14:14.261Z,2.58
2023-10-09T05:16:58.080Z,7.53
2023-10-09T05:19:43.021Z,3.08
2023-10-09T05:22:31.166Z,2.45
2023-10-09T05:25:00.094Z,2.75
2023-10-09T05:27:46.134Z,4.82
2023-10-09T05:30:25.745Z,8.40
2023-10-09T05:32:59.594Z,6.80
2023-10-09T05:35:48.197Z,3.25
2023-10-09T05:38:25.059Z,7.43
2023-10-09T05:40:55.011Z,3.17
2023-10-09T05:43:41.379Z,5.80
2023-10-09T05:46:10.550Z,2.05
2023-10-09T05:48:40.945Z,3.90
2023-10-09T05:51:13.851Z,4.03
2023-10-09T05:53:47.373Z,3.87
2023-10-09T05:56:33.625Z,5.13
2023-10-09T05:59:30.504Z,3.50
2023-10-09T06:02:17.198Z,4.12
2023-10-09T06:04:55.693Z,2.42
2023-10-09T06:07:25.823Z,6.47
2023-10-09T06:09:56.665Z,6.37
2023-10-09T06:12:35.414Z,4.78
2023-10-09T06:15:39.508Z,2.42
2023-10-09T06:18:25.739Z,5.47
2023-10-09T06:21:32.067Z,7.07
2023-10-09T06:24:12.006Z,3.20
2023-10-09T06:26:42.578Z,4.75
2023-10-09T06:29:15.987Z,5.00
2023-10-09T06:32:00.131Z,4.80
2023-10-09T06:34:36.451Z,4.70
2023-10-09T06:37:18.780Z,7.53
2023-10-09T06:40:12.463Z,4.25
2023-10-09T06:42:40.332Z,3.22
2023-10-09T06:45:15.885Z,3.35
2023-10-09T06:47:57.512Z,4.60
2023-10-09T06:50:26.071Z,2.50
2023-10-09T06:53:12.938Z,4.35
2023-10-09T06:55:49.847Z,3.90
2023-10-09T06:58:29.719Z,4.68
2023-10-09T07:01:36.185Z,4.57
2023-10-09T07:04:22.879Z,3.30
2023-10-09T07:06:52.476Z,6.22
2023-10-09T07:09:21.020Z,3.03
2023-10-09T07:11:53.278Z,4.78
2023-10-09T07:14:32.356Z,3.58
2023-10-09T07:17:23.429Z,2.23
2023-10-09T07:19:52.992Z,6.62
2023-10-09T07:22:21.332Z,5.18
2023-10-09T07:24:58.608Z,5.50
2023-10-09T07:27:50.890Z,4.00
2023-10-09T07:30:32.967Z,2.90
2023-10-09T07:33:12.924Z,6.62
2023-10-09T07:35:55.443Z,3.00
2023-10-09T07:38:29.684Z,2.53
2023-10-09T07:41:06.961Z,5.10
2023-10-09T07:43:42.374Z,4.77
2023-10-09T07:46:31.076Z,3.92
2023-10-09T07:49:09.679Z,3.28
2023-10-09T07:51:38.617Z,2.90
2023-10-09T07:54:09.533Z,3.83
2023-10-09T07:56:47.897Z,2.67
2023-10-09T07:59:19.846Z,4.35
2023-10-09T08:02:00.435Z,3.85
2023-10-09T08:05:00.793Z,5.75
2023-10-09T08:08:05.853Z,2.28
2023-10-09T08:10:23.044Z,2.23
2023-10-09T08:12:50.724Z,2.85
2023-10-09T08:15:22.661Z,3.25
2023-10-09T08:18:05.130Z,3.50
2023-10-09T08:20:51.754Z,4.87
2023-10-09T08:23:34.890Z,3.23
2023-10-09T08:26:17.467Z,4.03
2023-10-09T08:28:46.936Z,2.55
2023-10-09T08:31:34.415Z,2.37
2023-10-09T08:36:37.998Z,4.23
2023-10-09T08:39:18.661Z,3.60
2023-10-09T08:41:46.229Z,5.03
2023-10-09T08:44:16.424Z,4.30
2023-10-09T08:46:45.962Z,2.78
2023-10-09T08:49:15.668Z,3.70
2023-10-09T08:51:43.695Z,5.97
2023-10-09T08:54:13.195Z,4.18
2023-10-09T08:56:50.869Z,6.07
2023-10-09T08:59:20.702Z,2.62
2023-10-09T09:01:53.690Z,3.20
2023-10-09T09:04:42.292Z,3.58
2023-10-09T09:07:27.921Z,4.60
2023-10-09T09:10:05.029Z,3.25
2023-10-09T09:12:38.920Z,2.85
2023-10-09T09:15:20.065Z,3.50
2023-10-09T09:17:50.711Z,3.62
2023-10-09T09:20:41.390Z,3.83
2023-10-09T09:23:13.565Z,4.22
2023-10-09T09:25:46.345Z,3.30
2023-10-09T09:28:20.773Z,3.40
2023-10-09T09:30:57.636Z,4.00
2023-10-09T09:33:43.711Z,6.53
2023-10-09T09:36:13.983Z,3.65
2023-10-09T09:38:51.480Z,4.43
2023-10-09T09:41:26.260Z,5.53
2023-10-09T09:44:02.184Z,3.15
2023-10-09T09:46:36.431Z,3.45
2023-10-09T09:49:07.096Z,5.87
2023-10-09T09:51:35.578Z,4.93
2023-10-09T09:54:03.905Z,2.43
2023-10-09T09:56:34.819Z,4.25
2023-10-09T09:59:07.826Z,3.97
2023-10-09T10:01:41.086Z,2.95
2023-10-09T10:04:14.954Z,4.20
2023-10-09T10:06:46.450Z,3.67
2023-10-09T10:09:40.579Z,2.50
2023-10-09T10:12:12.601Z,3.97
2023-10-09T10:15:15.479Z,4.00
2023-10-09T10:18:01.912Z,3.42
2023-10-09T10:20:32.588Z,4.27
2023-10-09T10:23:20.837Z,4.25
2023-10-09T10:25:51.724Z,4.45
2023-10-09T10:28:40.303Z,2.65
2023-10-09T10:31:10.954Z,4.10
2023-10-09T10:34:08.656Z,2.97
2023-10-09T10:36:36.711Z,2.62
2023-10-09T10:39:06.247Z,2.70
2023-10-09T10:41:52.305Z,4.22
2023-10-09T10:44:43.090Z,3.25
2023-10-09T10:47:26.205Z,4.13
2023-10-09T10:50:21.895Z,2.78
2023-10-09T10:52:58.724Z,3.05
2023-10-09T10:55:32.869Z,7.32
2023-10-09T10:58:14.976Z,4.03
2023-10-09T11:00:58.076Z,3.00
2023-10-09T11:03:45.929Z,4.00
2023-10-09T11:06:16.789Z,4.18
2023-10-09T11:08:56.266Z,3.70
2023-10-09T11:11:45.193Z,2.95
2023-10-09T11:14:25.589Z,5.60
2023-10-09T11:16:59.548Z,4.35
2023-10-09T11:19:33.893Z,5.55
2023-10-09T11:22:09.051Z,12.60
2023-10-09T11:24:36.948Z,3.30
2023-10-09T11:27:07.841Z,6.93
2023-10-09T11:29:46.172Z,3.85
2023-10-09T11:32:20.997Z,3.50
2023-10-09T11:34:53.495Z,8.02
2023-10-09T11:37:32.517Z,4.87
2023-10-09T11:40:01.841Z,4.77
2023-10-09T11:42:50.208Z,6.32
2023-10-09T11:45:26.313Z,3.72
2023-10-09T11:48:01.461Z,3.30
2023-10-09T11:50:51.911Z,6.68
2023-10-09T11:53:23.597Z,3.47
2023-10-09T11:55:54.505Z,4.80
2023-10-09T11:58:26.117Z,3.65
2023-10-09T12:01:07.608Z,3.75
2023-10-09T12:03:35.604Z,5.70
2023-10-09T12:06:08.257Z,4.60
2023-10-09T12:08:36.238Z,11.38
2023-10-09T12:11:09.545Z,5.22
2023-10-09T12:13:43.620Z,6.05
2023-10-09T12:16:11.601Z,6.50
2023-10-09T12:18:40.782Z,7.00
2023-10-09T12:21:08.843Z,4.43
2023-10-09T12:23:39.178Z,6.28
2023-10-09T12:26:15.576Z,4.87
2023-10-09T12:28:47.964Z,6.40
2023-10-09T12:31:17.225Z,5.80
2023-10-09T12:33:44.869Z,4.87
2023-10-09T12:36:21.161Z,7.35
2023-10-09T12:39:00.205Z,6.40
2023-10-09T12:41:29.374Z,3.55
2023-10-09T12:44:01.060Z,6.83
2023-10-09T12:46:29.063Z,5.68
2023-10-09T12:48:56.958Z,3.70
2023-10-09T12:51:31.531Z,7.47
2023-10-09T12:54:00.135Z,3.67
2023-10-09T12:56:48.879Z,4.93
2023-10-09T12:59:16.862Z,6.97
2023-10-09T13:01:45.138Z,7.82
2023-10-09T13:04:16.572Z,4.25
2023-10-09T13:06:46.080Z,4.35
2023-10-09T13:09:15.716Z,8.97
2023-10-09T13:11:45.153Z,11.48
2023-10-09T13:14:18.255Z,10.73
2023-10-09T13:16:48.523Z,6.10
2023-10-09T13:19:16.166Z,4.37
2023-10-09T13:21:44.052Z,5.63
2023-10-09T13:24:17.257Z,4.10
2023-10-09T13:26:47.595Z,4.82
2023-10-09T13:29:23.621Z,4.85
2023-10-09T13:31:54.212Z,4.65
2023-10-09T13:34:22.184Z,6.10
2023-10-09T13:36:56.737Z,8.63
2023-10-09T13:39:25.817Z,11.63
2023-10-09T13:42:01.151Z,7.20
2023-10-09T13:44:30.784Z,26.02
2023-10-09T13:47:00.460Z,4.53
2023-10-09T13:49:31.866Z,3.78
2023-10-09T13:52:07.818Z,4.18
2023-10-09T13:54:35.428Z,11.02
2023-10-09T13:57:08.731Z,6.15
2023-10-09T13:59:37.595Z,7.07
2023-10-09T14:02:18.208Z,5.80
2023-10-09T14:04:48.504Z,5.78
2023-10-09T14:07:21.603Z,9.93
2023-10-09T14:10:08.906Z,3.67
2023-10-09T14:12:41.349Z,5.83
2023-10-09T14:15:18.127Z,9.75
2023-10-09T14:17:48.026Z,7.47
2023-10-09T14:20:32.310Z,6.35
2023-10-09T14:23:08.149Z,5.12
2023-10-09T14:25:39.974Z,17.97
2023-10-09T14:28:11.290Z,6.40
2023-10-09T14:30:46.127Z,5.47
2023-10-09T14:33:13.896Z,5.10
2023-10-09T14:35:43.182Z,15.77
2023-10-09T14:38:13.861Z,13.33
2023-10-09T14:40:46.114Z,90.68
2023-10-09T14:43:28.896Z,73.68
2023-10-09T14:45:56.880Z,42.67
2023-10-09T14:48:27.257Z,53.80
2023-10-09T14:50:54.906Z,111.67
2023-10-09T14:53:23.544Z,106.87
2023-10-09T14:55:58.135Z,61.22
2023-10-09T14:58:26.621Z,68.20
2023-10-09T15:00:55.353Z,101.35
2023-10-09T15:03:24.066Z,110.70
2023-10-09T15:05:52.045Z,77.47
2023-10-09T15:08:19.671Z,36.53
2023-10-09T15:10:49.064Z,53.60
2023-10-09T15:13:19.921Z,48.42
2023-10-09T15:15:52.390Z,17.10
2023-10-09T15:18:22.725Z,31.50
2023-10-09T15:20:50.789Z,25.90
2023-10-09T15:23:21.096Z,24.25
2023-10-09T15:25:51.475Z,16.40
2023-10-09T15:28:23.823Z,9.97
2023-10-09T15:30:51.858Z,15.98
2023-10-09T15:33:19.955Z,18.23
2023-10-09T15:35:48.022Z,25.12
2023-10-09T15:38:16.980Z,25.05
2023-10-09T15:40:45.369Z,18.90
2023-10-09T15:43:16.621Z,17.33
2023-10-09T15:45:51.360Z,9.82
2023-10-09T15:48:22.930Z,19.87
2023-10-09T15:50:52.962Z,7.30
2023-10-09T15:53:20.878Z,2.67
2023-10-09T15:55:53.276Z,9.40
2023-10-09T15:58:21.535Z,5.28
2023-10-09T16:00:49.074Z,2.47
2023-10-09T16:03:17.240Z,4.15
2023-10-09T16:05:44.836Z,3.93
2023-10-09T16:08:12.459Z,7.43
2023-10-09T16:10:40.407Z,9.27
2023-10-09T16:13:14.269Z,13.60
2023-10-09T16:15:46.345Z,8.95
2023-10-09T16:18:13.984Z,3.97
2023-10-09T16:20:44.548Z,43.33
2023-10-09T16:23:13.910Z,11.98
2023-10-09T16:25:42.162Z,7.28
2023-10-09T16:28:10.046Z,5.28
2023-10-09T16:30:37.931Z,2.63
2023-10-09T16:33:10.229Z,7.28
2023-10-09T16:35:42.569Z,4.15
2023-10-09T16:38:14.086Z,5.72
2023-10-09T16:40:48.200Z,10.30
2023-10-09T16:43:18.728Z,2.87
2023-10-09T16:45:46.599Z,7.68
2023-10-09T16:48:16.591Z,5.45
2023-10-09T16:50:48.237Z,3.80
2023-10-09T16:53:18.111Z,6.68
2023-10-09T16:55:46.462Z,4.50
2023-10-09T16:58:16.606Z,7.97
2023-10-09T17:00:47.525Z,9.52
2023-10-09T17:03:16.160Z,22.48
2023-10-09T17:06:00.237Z,6.43
2023-10-09T17:08:31.060Z,8.57
2023-10-09T17:10:58.864Z,5.32
2023-10-09T17:13:27.554Z,6.12
2023-10-09T17:15:55.608Z,5.50
2023-10-09T17:18:26.284Z,7.43
2023-10-09T17:20:55.848Z,5.00
2023-10-09T17:23:24.874Z,6.90
2023-10-09T17:25:59.430Z,5.87
2023-10-09T17:28:27.801Z,4.93
2023-10-09T17:31:01.643Z,4.30
2023-10-09T17:33:29.996Z,4.80
2023-10-09T17:36:00.684Z,7.10
2023-10-09T17:38:31.471Z,7.78
2023-10-09T17:41:00.697Z,371.95
2023-10-09T17:43:28.332Z,279.70
2023-10-09T17:45:56.034Z,121.47
2023-10-09T17:48:25.059Z,73.03
2023-10-09T17:50:54.134Z,68.85
2023-10-09T17:53:21.757Z,44.38
2023-10-09T17:55:53.812Z,15.35
2023-10-09T17:58:24.915Z,8.50
2023-10-09T18:00:59.383Z,6.15
2023-10-09T18:03:29.662Z,5.10
2023-10-09T18:05:58.022Z,9.70
2023-10-09T18:08:28.311Z,6.53
2023-10-09T18:10:57.721Z,11.73
2023-10-09T18:13:28.656Z,7.15
2023-10-09T18:16:22.721Z,8.63
2023-10-09T18:18:54.225Z,10.07
2023-10-09T18:21:22.185Z,10.35
2023-10-09T18:23:50.065Z,8.17
2023-10-09T18:26:19.955Z,7.15
2023-10-09T18:28:49.473Z,10.13
2023-10-09T18:31:17.867Z,10.32
2023-10-09T18:33:47.203Z,10.25
2023-10-09T18:36:15.103Z,13.50
2023-10-09T18:38:46.086Z,7.15
2023-10-09T18:41:14.273Z,7.50
2023-10-09T18:43:43.391Z,9.60
2023-10-09T18:46:12.832Z,8.80
2023-10-09T18:48:41.132Z,9.57
2023-10-09T18:51:15.444Z,9.85
2023-10-09T18:53:44.611Z,11.30
2023-10-09T18:56:16.144Z,11.60
2023-10-09T18:58:44.425Z,7.62
2023-10-09T19:01:15.611Z,8.07
2023-10-09T19:03:48.008Z,7.00
2023-10-09T19:06:18.906Z,7.97
2023-10-09T19:08:49.197Z,8.20
2023-10-09T19:11:21.895Z,8.48
2023-10-09T19:13:50.839Z,10.00
2023-10-09T19:16:19.042Z,10.95
2023-10-09T19:18:46.800Z,11.55
2023-10-09T19:21:15.722Z,6.68
2023-10-09T19:23:47.808Z,12.80
2023-10-09T19:26:16.229Z,10.87
2023-10-09T19:28:45.588Z,10.60
2023-10-09T19:31:17.113Z,10.73
2023-10-09T19:33:45.587Z,9.82
2023-10-09T19:36:15.758Z,9.98
2023-10-09T19:38:44.906Z,8.50
2023-10-09T19:41:13.712Z,10.85
2023-10-09T19:43:41.547Z,7.78
2023-10-09T19:46:09.352Z,11.82
2023-10-09T19:48:37.413Z,9.68
2023-10-09T19:51:06.223Z,9.87
2023-10-09T19:53:37.813Z,7.80
2023-10-09T19:56:12.294Z,12.73
2023-10-09T19:58:43.847Z,7.78
2023-10-09T20:01:14.772Z,9.63
2023-10-09T20:03:45.588Z,6.97
2023-10-09T20:06:16.994Z,9.98
2023-10-09T20:08:44.929Z,7.47
2023-10-09T20:11:14.089Z,7.10
2023-10-09T20:13:45.936Z,12.68
2023-10-09T20:16:13.983Z,7.50
2023-10-09T20:18:44.015Z,9.25
2023-10-09T20:21:12.968Z,6.82
2023-10-09T20:23:42.216Z,11.68
2023-10-09T20:26:16.422Z,10.43
2023-10-09T20:28:46.896Z,10.10
2023-10-09T20:31:15.864Z,7.70
2023-10-09T20:33:44.104Z,7.55
2023-10-09T20:36:32.233Z,7.28
2023-10-09T20:38:59.893Z,10.32
2023-10-09T20:41:29.734Z,12.57
2023-10-09T20:43:57.430Z,7.50
2023-10-09T20:46:25.618Z,9.25
2023-10-09T20:48:53.710Z,7.45
2023-10-09T20:51:21.241Z,6.22
2023-10-09T20:53:48.840Z,5.10
2023-10-09T20:56:16.712Z,6.53
2023-10-09T20:58:44.972Z,6.87
2023-10-09T21:01:17.093Z,8.13
2023-10-09T21:03:47.954Z,7.82
2023-10-09T21:06:16.717Z,6.37
2023-10-09T21:08:45.884Z,5.97
2023-10-09T21:11:14.222Z,7.22
2023-10-09T21:13:41.894Z,7.90
2023-10-09T21:16:15.829Z,7.78
2023-10-09T21:18:44.994Z,6.17
2023-10-09T21:21:14.816Z,6.82
2023-10-09T21:23:46.195Z,5.40
2023-10-09T21:26:23.581Z,8.18
2023-10-09T21:28:53.372Z,5.78
2023-10-09T21:31:26.345Z,9.10
2023-10-09T21:33:54.145Z,7.25
2023-10-09T21:36:21.985Z,7.18
2023-10-09T21:38:49.718Z,10.90
2023-10-09T21:41:19.088Z,9.15
2023-10-09T21:43:47.816Z,8.90
2023-10-09T21:46:16.300Z,10.00
2023-10-09T21:48:44.544Z,11.48
2023-10-09T21:51:14.595Z,10.40
2023-10-09T21:53:42.160Z,8.18
2023-10-09T21:56:11.877Z,11.00
2023-10-09T21:58:39.861Z,8.40
2023-10-09T22:01:10.427Z,9.13
2023-10-09T22:03:41.308Z,9.75
2023-10-09T22:06:11.363Z,10.38
2023-10-09T22:08:39.516Z,11.13
2023-10-09T22:11:08.798Z,8.38
2023-10-09T22:13:36.911Z,13.07
2023-10-09T22:16:06.281Z,12.57
2023-10-09T22:18:41.040Z,10.05
2023-10-09T22:21:12.572Z,8.87
2023-10-09T22:23:47.551Z,11.80
2023-10-09T22:26:16.465Z,11.90
2023-10-09T22:28:47.420Z,7.10
2023-10-09T22:31:17.121Z,7.40
2023-10-09T22:33:52.280Z,11.33
2023-10-09T22:36:31.172Z,6.18
2023-10-09T22:39:06.701Z,7.62
2023-10-09T22:41:35.977Z,6.57
2023-10-09T22:44:11.696Z,7.90
2023-10-09T22:46:40.074Z,8.23
2023-10-09T22:49:17.973Z,7.47
2023-10-09T22:51:52.328Z,13.55
2023-10-09T22:54:25.043Z,9.50
2023-10-09T22:56:54.196Z,8.55
2023-10-09T22:59:22.321Z,7.70
2023-10-09T23:01:56.636Z,8.05
2023-10-09T23:04:38.485Z,6.90
2023-10-09T23:07:17.050Z,6.70
2023-10-09T23:09:52.414Z,9.23
2023-10-09T23:12:36.943Z,8.30
2023-10-09T23:15:10.942Z,9.35
2023-10-09T23:17:45.304Z,7.32
2023-10-09T23:20:23.827Z,8.98
2023-10-09T23:22:52.933Z,7.37
2023-10-09T23:25:31.445Z,9.40
2023-10-09T23:28:28.567Z,6.50
2023-10-09T23:30:58.385Z,5.57
2023-10-09T23:33:26.305Z,7.03
2023-10-09T23:36:05.148Z,7.53
2023-10-09T23:38:36.064Z,6.40
2023-10-09T23:41:13.272Z,8.43
2023-10-09T23:43:47.655Z,9.50
2023-10-09T23:46:19.185Z,7.37
2023-10-09T23:48:50.061Z,12.00
2023-10-09T23:51:20.308Z,6.63
2023-10-09T23:53:53.904Z,6.80
2023-10-09T23:56:57.282Z,9.70
2023-10-09T23:59:39.452Z,7.85
